Aérodrome :
LOGIN :

S'inscrire | Disclaimer

   EN    FR    IT 

 










Légende :    VFR   VFR Marginal   IFR   IFR Intensif   IFR Très Intensif
Visi : 
Plafond : 
>= 8 km
>= 3000ft
5 à 8 km
1000 à 3000 ft
1500m à 5 km
500 à 1000 ft
800 à 1500m
200 à 500 ft
< 800m
< 200 ft
Symboles :   Orages  Brouillard  Fortes neiges  Fortes précipitations  Vent > 20 kt
SIGMETs :   Divers  Orages  Givrage  Turbulence  Onde Orograph.  Cendres Volcan.






- Altitude de l'aérodrome : 56 ft
- Code IATA : TRD


ENVA - Trondheim , Værnes

DERNIER METAR :
  • 290220Z AUTO 24014KT 8000 -FZRA ///021/// M01/M04 Q1031 RESHUP RMK WIND 670FT 26018KT

METARs EXPIRÉS :
  • 290150Z AUTO 24015KT 1400 R09/P2000N R27/P2000N -SN SCT002/// BKN007/// BKN010/// M02/M02 Q1031 RESHUP RMK WIND 670FT 26018KT
  • 290120Z AUTO 25018KT 9999 OVC014/// M01/M03 Q1032 RESN RESHUP RMK WIND 670FT 27020KT
  • 290050Z AUTO 24015KT 9999 FZUP FEW006/// BKN009/// OVC014/// M01/M03 Q1032 RMK WIND 670FT 27019KT
  • 290020Z AUTO 26020KT 0450 R09/1900U R27/P2000D +FZUP VV006 M02/M02 Q1032 RESHUP RESN RMK WIND 670FT 27024G37KT

TAF TAF ENVA
Valide du 29 à 00h jusqu'au 30 à 00h UTC


2900/2924 27017KT 9999 FEW015CB BKN030
TEMPO 2900/2916 29022G35KT 0800 SHSN VV006
BECMG 2916/2918 33008KT FEW015
TEMPO 2916/2924 3000 SHSN FEW015CB



MET'MAP, la Météo Aéronautique d'un coup d'oeil ! - Copyright ORBIFLY Décembre 2007 - Disclaimer

ORBIFLY MET'MAP TEAM :

Programmation & Développement : Alexandra Zaïnal
Sur une idée originale de : Baudouin d'Aumeries
Assistance à la programmation : Marc-Olivier Méhu
Soutien technique & logistique : Manuel Goepfert

Contact : metmap@orbifly.com




SOURCES & CREDITS :

   NOAA